createdAt,value
2018-02-09T00:00:17.644Z,19.50
2018-02-09T00:01:22.611Z,19.50
2018-02-09T00:02:27.578Z,19.50
2018-02-09T00:03:32.572Z,19.50
2018-02-09T00:04:37.596Z,19.50
2018-02-09T00:05:42.472Z,19.40
2018-02-09T00:06:47.508Z,19.40
2018-02-09T00:07:52.428Z,19.40
2018-02-09T00:08:57.460Z,19.40
2018-02-09T00:10:02.410Z,19.40
2018-02-09T00:11:07.302Z,19.40
2018-02-09T00:12:12.251Z,19.50
2018-02-09T00:13:17.307Z,19.40
2018-02-09T00:14:22.507Z,19.40
2018-02-09T00:15:27.562Z,19.40
2018-02-09T00:16:32.700Z,19.50
2018-02-09T00:17:37.779Z,19.50
2018-02-09T00:18:42.677Z,19.40
2018-02-09T00:19:47.474Z,19.40
2018-02-09T00:20:52.298Z,19.40
2018-02-09T00:21:57.146Z,19.40
2018-02-09T00:23:02.138Z,19.50
2018-02-09T00:24:07.129Z,19.40
2018-02-09T00:25:11.979Z,19.50
2018-02-09T00:26:16.793Z,19.50
2018-02-09T00:27:21.657Z,19.40
2018-02-09T00:28:26.606Z,19.40
2018-02-09T00:29:31.512Z,19.40
2018-02-09T00:30:36.271Z,19.40
2018-02-09T00:31:41.164Z,19.40
2018-02-09T00:32:45.939Z,19.40
2018-02-09T00:33:50.764Z,19.40
2018-02-09T00:34:56.153Z,19.40
2018-02-09T00:36:01.113Z,19.40
2018-02-09T00:37:05.974Z,19.40
2018-02-09T00:38:11.123Z,19.40
2018-02-09T00:39:16.017Z,19.40
2018-02-09T00:40:21.087Z,19.40
2018-02-09T00:41:26.076Z,19.40
2018-02-09T00:42:30.980Z,19.40
2018-02-09T00:43:36.021Z,19.40
2018-02-09T00:44:41.096Z,19.40
2018-02-09T00:45:46.122Z,19.40
2018-02-09T00:46:51.053Z,19.40
2018-02-09T00:47:56.048Z,19.40
2018-02-09T00:49:00.821Z,19.40
2018-02-09T00:50:05.670Z,19.40
2018-02-09T00:51:10.623Z,19.40
2018-02-09T00:52:15.645Z,19.40
2018-02-09T00:53:20.699Z,19.40
2018-02-09T00:54:25.534Z,19.40
2018-02-09T00:55:30.307Z,19.40
2018-02-09T00:56:35.313Z,19.40
2018-02-09T00:57:40.159Z,19.40
2018-02-09T00:58:45.064Z,19.40
2018-02-09T00:59:49.799Z,19.40
2018-02-09T01:00:54.774Z,19.40
2018-02-09T01:01:59.532Z,19.40
2018-02-09T01:03:04.457Z,19.40
2018-02-09T01:04:09.428Z,19.40
2018-02-09T01:05:14.330Z,19.40
2018-02-09T01:06:19.293Z,19.40
2018-02-09T01:07:24.357Z,19.40
2018-02-09T01:08:29.158Z,19.40
2018-02-09T01:09:33.955Z,19.40
2018-02-09T01:10:38.785Z,19.40
2018-02-09T01:11:43.627Z,19.40
2018-02-09T01:12:48.605Z,19.40
2018-02-09T01:13:53.612Z,19.40
2018-02-09T01:14:58.455Z,19.40
2018-02-09T01:16:03.490Z,19.40
2018-02-09T01:17:08.353Z,19.40
2018-02-09T01:18:13.304Z,19.40
2018-02-09T01:19:18.100Z,19.40
2018-02-09T01:20:23.134Z,19.40
2018-02-09T01:21:28.148Z,19.40
2018-02-09T01:22:33.036Z,19.40
2018-02-09T01:23:37.991Z,19.40
2018-02-09T01:24:42.932Z,19.40
2018-02-09T01:25:47.967Z,19.40
2018-02-09T01:26:52.886Z,19.40
2018-02-09T01:27:57.689Z,19.40
2018-02-09T01:29:02.507Z,19.40
2018-02-09T01:30:07.853Z,19.40
2018-02-09T01:31:12.809Z,19.40
2018-02-09T01:32:17.857Z,19.40
2018-02-09T01:33:22.633Z,19.40
2018-02-09T01:34:27.442Z,19.40
2018-02-09T01:35:32.293Z,19.40
2018-02-09T01:36:37.120Z,19.40
2018-02-09T01:37:42.088Z,19.40
2018-02-09T01:38:46.983Z,19.40
2018-02-09T01:39:51.833Z,19.40
2018-02-09T01:40:56.772Z,19.40
2018-02-09T01:42:01.668Z,19.40
2018-02-09T01:43:06.461Z,19.40
2018-02-09T01:44:11.508Z,19.40
2018-02-09T01:45:16.446Z,19.40
2018-02-09T01:46:21.397Z,19.40
2018-02-09T01:47:26.347Z,19.40
2018-02-09T01:48:31.177Z,19.40
2018-02-09T01:49:35.944Z,19.40
2018-02-09T01:50:40.862Z,19.40
2018-02-09T01:51:45.787Z,19.40
2018-02-09T01:52:50.607Z,19.40
2018-02-09T01:53:55.503Z,19.40
2018-02-09T01:55:00.854Z,19.40
2018-02-09T01:56:06.551Z,19.40
2018-02-09T01:57:11.348Z,19.40
2018-02-09T01:58:16.356Z,19.40
2018-02-09T01:59:21.366Z,19.40
2018-02-09T02:00:26.285Z,19.40
2018-02-09T02:01:31.323Z,19.40
2018-02-09T02:02:36.282Z,19.40
2018-02-09T02:03:41.379Z,19.40
2018-02-09T02:04:46.891Z,19.40
2018-02-09T02:05:51.782Z,19.40
2018-02-09T02:06:56.765Z,19.40
2018-02-09T02:08:01.757Z,19.40
2018-02-09T02:09:06.776Z,19.40
2018-02-09T02:10:12.180Z,19.40
2018-02-09T02:11:16.935Z,19.40
2018-02-09T02:12:21.743Z,19.40
2018-02-09T02:13:26.766Z,19.40
2018-02-09T02:14:31.615Z,19.40
2018-02-09T02:15:36.642Z,19.40
2018-02-09T02:16:41.611Z,19.40
2018-02-09T02:17:46.401Z,19.40
2018-02-09T02:18:51.331Z,19.40
2018-02-09T02:19:56.332Z,19.40
2018-02-09T02:21:01.236Z,19.40
2018-02-09T02:22:06.058Z,19.40
2018-02-09T02:23:11.133Z,19.40
2018-02-09T02:24:16.194Z,19.40
2018-02-09T02:25:21.253Z,19.40
2018-02-09T02:26:26.760Z,19.40
2018-02-09T02:27:31.764Z,19.40
2018-02-09T02:28:36.567Z,19.40
2018-02-09T02:29:41.311Z,19.40
2018-02-09T02:30:46.245Z,19.40
2018-02-09T02:31:51.102Z,19.40
2018-02-09T02:32:56.090Z,19.40
2018-02-09T02:34:01.047Z,19.40
2018-02-09T02:35:06.025Z,19.40
2018-02-09T02:36:11.024Z,19.40
2018-02-09T02:37:16.102Z,19.40
2018-02-09T02:38:21.012Z,19.40
2018-02-09T02:39:25.828Z,19.40
2018-02-09T02:40:30.914Z,19.40
2018-02-09T02:41:35.897Z,19.40
2018-02-09T02:42:40.987Z,19.40
2018-02-09T02:43:45.931Z,19.40
2018-02-09T02:44:50.805Z,19.40
2018-02-09T02:45:55.605Z,19.40
2018-02-09T02:47:00.514Z,19.40
2018-02-09T02:48:05.599Z,19.40
2018-02-09T02:49:10.489Z,19.40
2018-02-09T02:50:15.445Z,19.40
2018-02-09T02:51:20.343Z,19.40
2018-02-09T02:52:25.156Z,19.40
2018-02-09T02:53:29.990Z,19.40
2018-02-09T02:54:34.898Z,19.40
2018-02-09T02:55:39.950Z,19.40
2018-02-09T02:56:44.843Z,19.40
2018-02-09T02:57:49.616Z,19.40
2018-02-09T02:58:54.555Z,19.40
2018-02-09T02:59:59.377Z,19.40
2018-02-09T03:01:04.424Z,19.40
2018-02-09T03:02:09.349Z,19.40
2018-02-09T03:03:14.169Z,19.40
2018-02-09T03:04:18.905Z,19.40
2018-02-09T03:05:23.964Z,19.40
2018-02-09T03:06:28.947Z,19.40
2018-02-09T03:07:33.777Z,19.40
2018-02-09T03:08:38.628Z,19.40
2018-02-09T03:09:43.405Z,19.40
2018-02-09T03:10:48.327Z,19.40
2018-02-09T03:11:53.330Z,19.40
2018-02-09T03:12:58.183Z,19.40
2018-02-09T03:14:03.239Z,19.40
2018-02-09T03:15:08.151Z,19.40
2018-02-09T03:16:13.044Z,19.40
2018-02-09T03:17:17.940Z,19.40
2018-02-09T03:18:22.707Z,19.40
2018-02-09T03:19:27.484Z,19.40
2018-02-09T03:20:32.527Z,19.40
2018-02-09T03:21:37.450Z,19.40
2018-02-09T03:22:42.192Z,19.40
2018-02-09T03:23:47.115Z,19.40
2018-02-09T03:24:51.833Z,19.40
2018-02-09T03:25:56.785Z,19.40
2018-02-09T03:27:01.838Z,19.40
2018-02-09T03:28:06.753Z,19.40
2018-02-09T03:29:11.684Z,19.40
2018-02-09T03:30:16.492Z,19.40
2018-02-09T03:31:21.452Z,19.40
2018-02-09T03:32:26.383Z,19.40
2018-02-09T03:33:31.352Z,19.40
2018-02-09T03:34:36.317Z,19.40
2018-02-09T03:35:41.139Z,19.40
2018-02-09T03:36:46.057Z,19.40
2018-02-09T03:37:51.075Z,19.40
2018-02-09T03:38:56.068Z,19.40
2018-02-09T03:40:00.998Z,19.40
2018-02-09T03:41:05.980Z,19.40
2018-02-09T03:42:10.770Z,19.40
2018-02-09T03:43:15.649Z,19.40
2018-02-09T03:44:20.469Z,19.40
2018-02-09T03:45:25.332Z,19.40
2018-02-09T03:46:30.258Z,19.40
2018-02-09T03:47:35.083Z,19.40
2018-02-09T03:48:39.895Z,19.40
2018-02-09T03:49:44.706Z,19.40
2018-02-09T03:50:49.542Z,19.40
2018-02-09T03:51:54.413Z,19.40
2018-02-09T03:52:59.293Z,19.40
2018-02-09T03:54:04.194Z,19.40
2018-02-09T03:55:09.187Z,19.40
2018-02-09T03:56:14.072Z,19.40
2018-02-09T03:57:19.428Z,19.40
2018-02-09T03:58:24.361Z,19.40
2018-02-09T03:59:29.219Z,19.40
2018-02-09T04:00:34.218Z,19.40
2018-02-09T04:01:39.198Z,19.40
2018-02-09T04:02:44.009Z,19.40
2018-02-09T04:03:48.978Z,19.40
2018-02-09T04:04:53.807Z,19.40
2018-02-09T04:05:59.420Z,19.40
2018-02-09T04:07:04.563Z,19.40
2018-02-09T04:08:09.440Z,19.40
2018-02-09T04:09:14.370Z,19.40
2018-02-09T04:10:19.229Z,19.40
2018-02-09T04:11:24.185Z,19.40
2018-02-09T04:12:29.225Z,19.40
2018-02-09T04:13:34.110Z,19.40
2018-02-09T04:14:38.948Z,19.40
2018-02-09T04:15:43.833Z,19.40
2018-02-09T04:16:48.801Z,19.40
2018-02-09T04:17:53.664Z,19.40
2018-02-09T04:18:58.971Z,19.40
2018-02-09T04:20:04.098Z,19.40
2018-02-09T04:21:08.943Z,19.40
2018-02-09T04:22:13.794Z,19.40
2018-02-09T04:23:18.636Z,19.40
2018-02-09T04:24:23.633Z,19.40
2018-02-09T04:25:28.523Z,19.40
2018-02-09T04:26:33.363Z,19.40
2018-02-09T04:27:38.363Z,19.40
2018-02-09T04:28:43.324Z,19.40
2018-02-09T04:29:48.198Z,19.40
2018-02-09T04:30:53.271Z,19.40
2018-02-09T04:31:58.551Z,19.40
2018-02-09T04:33:03.591Z,19.40
2018-02-09T04:34:08.631Z,19.40
2018-02-09T04:35:13.375Z,19.40
2018-02-09T04:36:18.198Z,19.40
2018-02-09T04:37:23.108Z,19.40
2018-02-09T04:38:27.880Z,19.40
2018-02-09T04:39:32.852Z,19.40
2018-02-09T04:40:37.653Z,19.40
2018-02-09T04:41:42.606Z,19.40
2018-02-09T04:42:47.452Z,19.40
2018-02-09T04:43:52.410Z,19.40
2018-02-09T04:44:57.466Z,19.40
2018-02-09T04:46:02.463Z,19.40
2018-02-09T04:47:07.341Z,19.40
2018-02-09T04:48:12.274Z,19.40
2018-02-09T04:49:17.277Z,19.40
2018-02-09T04:50:22.195Z,19.40
2018-02-09T04:51:27.202Z,19.40
2018-02-09T04:52:32.159Z,19.40
2018-02-09T04:53:37.056Z,19.40
2018-02-09T04:54:41.996Z,19.40
2018-02-09T04:55:47.456Z,19.40
2018-02-09T04:56:52.382Z,19.40
2018-02-09T04:57:57.241Z,19.40
2018-02-09T04:59:02.858Z,19.40
2018-02-09T05:00:07.862Z,19.40
2018-02-09T05:01:12.703Z,19.40
2018-02-09T05:02:17.731Z,19.30
2018-02-09T05:03:22.645Z,19.40
2018-02-09T05:04:27.487Z,19.40
2018-02-09T05:05:32.497Z,19.40
2018-02-09T05:06:37.297Z,19.40
2018-02-09T05:07:42.286Z,19.40
2018-02-09T05:08:47.089Z,19.40
2018-02-09T05:09:52.204Z,19.40
2018-02-09T05:10:57.000Z,19.40
2018-02-09T05:12:02.242Z,19.40
2018-02-09T05:13:07.437Z,19.40
2018-02-09T05:14:12.467Z,19.40
2018-02-09T05:15:17.392Z,19.30
2018-02-09T05:16:22.169Z,19.40
2018-02-09T05:17:26.950Z,19.40
2018-02-09T05:18:31.825Z,19.40
2018-02-09T05:19:36.741Z,19.40
2018-02-09T05:20:41.596Z,19.40
2018-02-09T05:21:46.469Z,19.40
2018-02-09T05:22:51.261Z,19.40
2018-02-09T05:23:56.240Z,19.40
2018-02-09T05:25:01.339Z,19.30
2018-02-09T05:26:06.144Z,19.40
2018-02-09T05:27:11.024Z,19.30
2018-02-09T05:28:15.899Z,19.40
2018-02-09T05:29:20.910Z,19.40
2018-02-09T05:30:25.714Z,19.30
2018-02-09T05:31:30.637Z,19.40
2018-02-09T05:32:35.649Z,19.40
2018-02-09T05:33:40.408Z,19.40
2018-02-09T05:34:45.287Z,19.40
2018-02-09T05:35:50.115Z,19.40
2018-02-09T05:36:55.095Z,19.30
2018-02-09T05:37:59.989Z,19.40
2018-02-09T05:39:04.924Z,19.40
2018-02-09T05:40:09.740Z,19.40
2018-02-09T05:41:14.656Z,19.40
2018-02-09T05:42:19.550Z,19.40
2018-02-09T05:43:24.541Z,19.30
2018-02-09T05:44:29.465Z,19.30
2018-02-09T05:45:34.296Z,19.30
2018-02-09T05:46:39.312Z,19.30
2018-02-09T05:47:44.229Z,19.30
2018-02-09T05:48:49.286Z,19.30
2018-02-09T05:49:54.397Z,19.30
2018-02-09T05:50:59.541Z,19.30
2018-02-09T05:52:04.547Z,19.30
2018-02-09T05:53:09.436Z,19.30
2018-02-09T05:54:14.515Z,19.30
2018-02-09T05:55:19.343Z,19.30
2018-02-09T05:56:24.281Z,19.30
2018-02-09T05:57:29.004Z,19.30
2018-02-09T05:58:34.008Z,19.30
2018-02-09T05:59:38.690Z,19.30
2018-02-09T06:00:43.534Z,19.30
2018-02-09T06:01:48.386Z,19.30
2018-02-09T06:02:53.339Z,19.30
2018-02-09T06:03:58.178Z,19.30
2018-02-09T06:05:03.111Z,19.30
2018-02-09T06:06:08.151Z,19.30
2018-02-09T06:07:13.072Z,19.20
2018-02-09T06:08:17.873Z,19.30
2018-02-09T06:09:22.769Z,19.20
2018-02-09T06:10:27.668Z,19.30
2018-02-09T06:11:32.646Z,19.20
2018-02-09T06:12:37.579Z,19.20
2018-02-09T06:13:42.326Z,19.20
2018-02-09T06:14:47.090Z,19.20
2018-02-09T06:15:52.118Z,19.20
2018-02-09T06:16:57.097Z,19.20
2018-02-09T06:18:02.148Z,19.20
2018-02-09T06:19:07.126Z,19.20
2018-02-09T06:20:11.874Z,19.20
2018-02-09T06:21:16.639Z,19.20
2018-02-09T06:22:21.670Z,19.20
2018-02-09T06:23:26.801Z,19.20
2018-02-09T06:24:32.074Z,19.20
2018-02-09T06:25:36.977Z,19.10
2018-02-09T06:26:41.887Z,19.20
2018-02-09T06:27:46.769Z,19.20
2018-02-09T06:28:51.843Z,19.10
2018-02-09T06:29:56.919Z,19.10
2018-02-09T06:31:01.813Z,19.10
2018-02-09T06:32:06.751Z,19.10
2018-02-09T06:33:11.560Z,19.10
2018-02-09T06:34:16.381Z,19.10
2018-02-09T06:35:21.328Z,19.20
2018-02-09T06:36:26.143Z,19.10
2018-02-09T06:37:31.074Z,19.10
2018-02-09T06:38:36.039Z,19.10
2018-02-09T06:39:40.925Z,19.10
2018-02-09T06:40:45.908Z,19.10
2018-02-09T06:41:51.085Z,19.10
2018-02-09T06:42:56.929Z,19.10
2018-02-09T06:44:02.039Z,19.10
2018-02-09T06:45:07.030Z,19.10
2018-02-09T06:46:12.014Z,19.20
2018-02-09T06:47:17.031Z,19.10
2018-02-09T06:48:21.886Z,19.10
2018-02-09T06:49:26.768Z,19.20
2018-02-09T06:50:31.660Z,19.10
2018-02-09T06:51:38.029Z,19.10
2018-02-09T06:52:43.510Z,19.10
2018-02-09T06:53:48.343Z,19.10
2018-02-09T06:54:53.398Z,19.10
2018-02-09T06:55:58.395Z,19.10
2018-02-09T06:57:03.535Z,19.10
2018-02-09T06:58:08.578Z,19.10
2018-02-09T06:59:13.594Z,19.20
2018-02-09T07:00:18.432Z,19.10
2018-02-09T07:01:23.237Z,19.10
2018-02-09T07:02:28.242Z,19.10
2018-02-09T07:03:33.812Z,19.10
2018-02-09T07:04:39.099Z,19.10
2018-02-09T07:05:44.346Z,19.20
2018-02-09T07:06:50.585Z,19.10
2018-02-09T07:07:55.769Z,19.10
2018-02-09T07:09:00.649Z,19.10
2018-02-09T07:10:05.567Z,19.10
2018-02-09T07:11:11.092Z,19.10
2018-02-09T07:12:16.101Z,19.10
2018-02-09T07:13:21.054Z,19.10
2018-02-09T07:14:26.196Z,19.10
2018-02-09T07:15:31.262Z,19.20
2018-02-09T07:16:36.383Z,19.10
2018-02-09T07:17:41.352Z,19.10
2018-02-09T07:18:46.200Z,18.90
2018-02-09T07:19:51.035Z,18.50
2018-02-09T07:20:55.899Z,18.30
2018-02-09T07:22:00.608Z,18.10
2018-02-09T07:23:05.458Z,17.80
2018-02-09T07:24:10.345Z,17.70
2018-02-09T07:25:15.112Z,17.50
2018-02-09T07:26:19.960Z,17.50
2018-02-09T07:27:25.279Z,17.50
2018-02-09T07:28:30.042Z,17.50
2018-02-09T07:29:35.258Z,17.60
2018-02-09T07:30:40.210Z,17.80
2018-02-09T07:31:45.243Z,17.90
2018-02-09T07:32:50.187Z,18.00
2018-02-09T07:33:55.108Z,18.10
2018-02-09T07:35:00.056Z,18.30
2018-02-09T07:36:05.017Z,18.30
2018-02-09T07:37:12.057Z,18.40
2018-02-09T07:38:17.357Z,18.50
2018-02-09T07:39:22.304Z,18.60
2018-02-09T07:40:27.252Z,18.70
2018-02-09T07:41:32.104Z,18.70
2018-02-09T07:42:37.742Z,18.80
2018-02-09T07:43:42.778Z,18.80
2018-02-09T07:44:47.539Z,18.90
2018-02-09T07:45:52.294Z,18.90
2018-02-09T07:46:58.130Z,19.00
2018-02-09T07:48:03.211Z,19.00
2018-02-09T07:49:08.041Z,19.00
2018-02-09T07:50:13.042Z,19.00
2018-02-09T07:51:17.995Z,19.10
2018-02-09T07:52:23.097Z,19.10
2018-02-09T07:53:28.102Z,19.20
2018-02-09T07:54:32.967Z,19.20
2018-02-09T07:55:37.848Z,19.20
2018-02-09T07:56:42.814Z,19.20
2018-02-09T07:57:47.783Z,19.30
2018-02-09T07:58:53.071Z,19.30
2018-02-09T07:59:58.163Z,19.30
2018-02-09T08:01:03.159Z,19.30
2018-02-09T08:02:07.951Z,19.30
2018-02-09T08:03:12.815Z,19.30
2018-02-09T08:04:17.730Z,19.40
2018-02-09T08:05:23.188Z,19.40
2018-02-09T08:06:28.218Z,19.40
2018-02-09T08:07:33.315Z,19.40
2018-02-09T08:08:38.277Z,19.40
2018-02-09T08:09:43.124Z,19.40
2018-02-09T08:10:47.906Z,19.50
2018-02-09T08:11:52.740Z,19.50
2018-02-09T08:12:57.640Z,19.50
2018-02-09T08:14:02.510Z,19.50
2018-02-09T08:15:07.423Z,19.50
2018-02-09T08:16:12.452Z,19.50
2018-02-09T08:17:17.529Z,19.60
2018-02-09T08:18:22.415Z,19.60
2018-02-09T08:19:27.428Z,19.60
2018-02-09T08:20:33.229Z,19.60
2018-02-09T08:21:38.330Z,19.60
2018-02-09T08:22:43.341Z,19.70
2018-02-09T08:23:48.321Z,19.70
2018-02-09T08:24:53.155Z,19.70
2018-02-09T08:25:58.023Z,19.70
2018-02-09T08:27:02.816Z,19.80
2018-02-09T08:28:07.628Z,19.70
2018-02-09T08:29:12.423Z,19.80
2018-02-09T08:30:17.250Z,19.80
2018-02-09T08:31:22.878Z,19.80
2018-02-09T08:32:27.951Z,19.80
2018-02-09T08:33:33.897Z,19.80
2018-02-09T08:34:38.722Z,19.90
2018-02-09T08:35:43.594Z,19.90
2018-02-09T08:36:48.609Z,19.90
2018-02-09T08:37:53.578Z,19.90
2018-02-09T08:38:58.484Z,19.90
2018-02-09T08:40:03.349Z,19.90
2018-02-09T08:41:08.441Z,20.00
2018-02-09T08:42:13.343Z,20.00
2018-02-09T08:43:18.180Z,20.00
2018-02-09T08:44:22.958Z,20.00
2018-02-09T08:45:27.785Z,20.00
2018-02-09T08:46:32.920Z,20.00
2018-02-09T08:47:39.448Z,20.00
2018-02-09T08:48:44.632Z,20.00
2018-02-09T08:49:49.768Z,20.00
2018-02-09T08:50:55.352Z,20.00
2018-02-09T08:52:00.295Z,20.00
2018-02-09T08:53:05.455Z,20.00
2018-02-09T08:54:10.440Z,20.00
2018-02-09T08:55:15.382Z,20.00
2018-02-09T08:56:20.560Z,20.00
2018-02-09T08:57:25.721Z,20.10
2018-02-09T08:58:31.787Z,20.00
2018-02-09T08:59:36.796Z,20.00
2018-02-09T09:00:42.013Z,20.00
2018-02-09T09:01:47.200Z,20.00
2018-02-09T09:02:52.060Z,20.10
2018-02-09T09:03:57.207Z,20.00
2018-02-09T09:05:02.263Z,20.10
2018-02-09T09:06:07.224Z,20.10
2018-02-09T09:07:12.290Z,20.10
2018-02-09T09:08:17.284Z,20.10
2018-02-09T09:09:22.359Z,20.10
2018-02-09T09:10:27.229Z,20.10
2018-02-09T09:11:32.323Z,20.10
2018-02-09T09:12:37.163Z,20.10
2018-02-09T09:13:42.104Z,20.00
2018-02-09T09:14:47.082Z,20.10
2018-02-09T09:15:53.160Z,20.10
2018-02-09T09:16:58.232Z,20.10
2018-02-09T09:18:03.173Z,20.00
2018-02-09T09:19:08.275Z,20.00
2018-02-09T09:20:13.232Z,20.10
2018-02-09T09:21:18.177Z,20.20
2018-02-09T09:22:23.098Z,20.20
2018-02-09T09:23:28.047Z,20.20
2018-02-09T09:24:32.996Z,20.20
2018-02-09T09:25:37.954Z,20.10
2018-02-09T09:26:42.899Z,20.10
2018-02-09T09:27:47.680Z,20.10
2018-02-09T09:28:52.550Z,20.10
2018-02-09T09:29:57.561Z,20.10
2018-02-09T09:31:02.721Z,20.10
2018-02-09T09:32:07.833Z,20.10
2018-02-09T09:33:12.770Z,20.10
2018-02-09T09:34:17.745Z,20.10
2018-02-09T09:35:22.737Z,20.10
2018-02-09T09:36:27.681Z,20.10
2018-02-09T09:37:32.795Z,20.10
2018-02-09T09:38:38.113Z,20.10
2018-02-09T09:39:43.030Z,20.20
2018-02-09T09:40:47.857Z,20.20
2018-02-09T09:41:52.714Z,20.30
2018-02-09T09:42:57.743Z,20.30
2018-02-09T09:44:02.660Z,20.20
2018-02-09T09:45:07.572Z,20.20
2018-02-09T09:46:12.533Z,20.20
2018-02-09T09:47:17.429Z,20.20
2018-02-09T09:48:22.246Z,20.20
2018-02-09T09:49:27.072Z,20.20
2018-02-09T09:50:32.094Z,20.20
2018-02-09T09:51:37.028Z,20.20
2018-02-09T09:52:41.982Z,20.20
2018-02-09T09:53:46.935Z,20.10
2018-02-09T09:54:52.570Z,20.10
2018-02-09T09:55:57.517Z,20.10
2018-02-09T09:57:02.650Z,20.10
2018-02-09T09:58:08.013Z,20.10
2018-02-09T09:59:12.813Z,20.10
2018-02-09T10:00:17.594Z,20.10
2018-02-09T10:01:22.580Z,20.10
2018-02-09T10:02:27.480Z,20.10
2018-02-09T10:03:32.469Z,20.00
2018-02-09T10:04:37.507Z,20.10
2018-02-09T10:05:42.390Z,20.10
2018-02-09T10:06:47.207Z,20.10
2018-02-09T10:07:52.528Z,20.10
2018-02-09T10:08:57.398Z,20.00
2018-02-09T10:10:02.764Z,20.10
2018-02-09T10:11:07.700Z,20.10
2018-02-09T10:12:12.529Z,20.00
2018-02-09T10:13:17.396Z,20.00
2018-02-09T10:14:22.185Z,20.00
2018-02-09T10:15:27.021Z,20.00
2018-02-09T10:16:32.086Z,20.00
2018-02-09T10:17:37.093Z,20.00
2018-02-09T10:18:41.928Z,20.00
2018-02-09T10:19:46.974Z,20.00
2018-02-09T10:20:51.984Z,20.00
2018-02-09T10:21:58.123Z,20.00
2018-02-09T10:23:03.144Z,20.00
2018-02-09T10:24:08.074Z,20.00
2018-02-09T10:25:12.964Z,20.00
2018-02-09T10:26:17.934Z,20.00
2018-02-09T10:27:22.818Z,20.00
2018-02-09T10:28:27.806Z,20.00
2018-02-09T10:29:32.808Z,20.00
2018-02-09T10:30:37.555Z,20.00
2018-02-09T10:31:42.397Z,20.00
2018-02-09T10:32:47.744Z,20.00
2018-02-09T10:33:52.553Z,20.00
2018-02-09T10:34:57.604Z,20.00
2018-02-09T10:36:02.809Z,20.00
2018-02-09T10:37:07.949Z,20.00
2018-02-09T10:38:12.924Z,20.00
2018-02-09T10:39:17.954Z,20.00
2018-02-09T10:40:22.964Z,20.00
2018-02-09T10:41:27.767Z,20.00
2018-02-09T10:42:32.625Z,20.10
2018-02-09T10:43:37.452Z,20.10
2018-02-09T10:44:42.271Z,20.00
2018-02-09T10:45:47.193Z,20.10
2018-02-09T10:46:52.247Z,20.10
2018-02-09T10:47:57.093Z,20.10
2018-02-09T10:49:02.299Z,20.10
2018-02-09T10:50:07.399Z,20.10
2018-02-09T10:51:12.784Z,20.10
2018-02-09T10:52:18.053Z,20.10
2018-02-09T10:53:23.037Z,20.10
2018-02-09T10:54:27.911Z,20.10
2018-02-09T10:55:32.927Z,20.10
2018-02-09T10:56:37.796Z,20.10
2018-02-09T10:57:42.699Z,20.10
2018-02-09T10:58:48.313Z,20.10
2018-02-09T10:59:53.311Z,20.10
2018-02-09T11:00:58.123Z,20.10
2018-02-09T11:02:03.141Z,20.10
2018-02-09T11:03:08.234Z,20.10
2018-02-09T11:04:13.038Z,20.10
2018-02-09T11:05:17.959Z,20.10
2018-02-09T11:06:22.694Z,20.10
2018-02-09T11:07:27.469Z,20.10
2018-02-09T11:08:33.323Z,20.10
2018-02-09T11:09:38.089Z,20.10
2018-02-09T11:10:42.879Z,20.10
2018-02-09T11:11:47.806Z,20.10
2018-02-09T11:12:52.614Z,20.10
2018-02-09T11:13:57.428Z,20.00
2018-02-09T11:15:02.432Z,20.00
2018-02-09T11:16:07.380Z,20.00
2018-02-09T11:17:12.331Z,20.00
2018-02-09T11:18:17.426Z,20.00
2018-02-09T11:19:22.377Z,20.00
2018-02-09T11:20:27.493Z,19.90
2018-02-09T11:21:32.473Z,19.90
2018-02-09T11:22:37.182Z,19.90
2018-02-09T11:23:42.166Z,19.90
2018-02-09T11:24:47.088Z,19.90
2018-02-09T11:25:52.017Z,19.90
2018-02-09T11:26:56.974Z,19.90
2018-02-09T11:28:02.061Z,19.90
2018-02-09T11:29:07.031Z,19.90
2018-02-09T11:30:12.254Z,19.90
2018-02-09T11:31:17.281Z,19.90
2018-02-09T11:32:22.288Z,19.90
2018-02-09T11:33:27.062Z,20.00
2018-02-09T11:34:32.004Z,20.00
2018-02-09T11:35:36.761Z,20.00
2018-02-09T11:36:41.697Z,20.00
2018-02-09T11:37:46.472Z,20.00
2018-02-09T11:38:51.337Z,20.00
2018-02-09T11:39:56.176Z,20.00
2018-02-09T11:41:01.138Z,20.00
2018-02-09T11:42:06.200Z,20.00
2018-02-09T11:43:11.116Z,20.00
2018-02-09T11:44:16.099Z,20.00
2018-02-09T11:45:21.870Z,20.10
2018-02-09T11:46:26.860Z,20.10
2018-02-09T11:47:31.835Z,20.20
2018-02-09T11:48:36.580Z,20.10
2018-02-09T11:49:41.392Z,20.10
2018-02-09T11:50:46.293Z,20.10
2018-02-09T11:51:51.281Z,20.10
2018-02-09T11:52:56.232Z,20.10
2018-02-09T11:54:01.292Z,20.10
2018-02-09T11:55:06.332Z,20.10
2018-02-09T11:56:11.916Z,20.10
2018-02-09T11:57:16.944Z,20.20
2018-02-09T11:58:22.296Z,20.10
2018-02-09T11:59:27.356Z,20.10
2018-02-09T12:00:33.172Z,20.10
2018-02-09T12:01:38.132Z,20.10
2018-02-09T12:02:44.152Z,20.10
2018-02-09T12:03:48.914Z,20.10
2018-02-09T12:04:53.983Z,20.10
2018-02-09T12:05:58.998Z,20.10
2018-02-09T12:07:03.849Z,20.10
2018-02-09T12:08:08.661Z,20.10
2018-02-09T12:09:13.526Z,20.10
2018-02-09T12:10:18.814Z,20.10
2018-02-09T12:11:24.098Z,20.10
2018-02-09T12:12:29.277Z,20.10
2018-02-09T12:13:34.081Z,20.10
2018-02-09T12:14:38.966Z,20.00
2018-02-09T12:15:43.959Z,20.00
2018-02-09T12:16:49.034Z,20.00
2018-02-09T12:17:54.193Z,20.00
2018-02-09T12:18:59.292Z,20.00
2018-02-09T12:20:04.400Z,20.00
2018-02-09T12:21:09.259Z,20.00
2018-02-09T12:22:14.378Z,20.00
2018-02-09T12:23:19.413Z,20.00
2018-02-09T12:24:24.476Z,19.90
2018-02-09T12:25:29.544Z,19.90
2018-02-09T12:26:34.389Z,20.00
2018-02-09T12:27:39.445Z,19.90
2018-02-09T12:28:44.904Z,19.90
2018-02-09T12:29:49.895Z,19.90
2018-02-09T12:30:54.882Z,19.90
2018-02-09T12:31:59.874Z,19.90
2018-02-09T12:33:04.864Z,19.90
2018-02-09T12:34:09.788Z,19.90
2018-02-09T12:35:14.608Z,19.90
2018-02-09T12:36:19.545Z,19.90
2018-02-09T12:37:24.437Z,19.90
2018-02-09T12:38:29.303Z,19.90
2018-02-09T12:39:34.246Z,19.90
2018-02-09T12:40:40.186Z,19.90
2018-02-09T12:41:45.396Z,19.90
2018-02-09T12:42:50.508Z,19.90
2018-02-09T12:43:56.269Z,19.90
2018-02-09T12:45:01.316Z,19.90
2018-02-09T12:46:06.398Z,19.90
2018-02-09T12:47:11.200Z,19.90
2018-02-09T12:48:16.173Z,19.90
2018-02-09T12:49:21.298Z,19.90
2018-02-09T12:50:26.259Z,19.90
2018-02-09T12:51:31.401Z,19.90
2018-02-09T12:52:36.699Z,19.90
2018-02-09T12:53:41.743Z,19.90
2018-02-09T12:54:47.054Z,19.90
2018-02-09T12:55:52.073Z,19.90
2018-02-09T12:56:56.875Z,19.90
2018-02-09T12:58:01.724Z,19.90
2018-02-09T12:59:06.653Z,19.90
2018-02-09T13:00:11.542Z,19.90
2018-02-09T13:01:17.190Z,19.90
2018-02-09T13:02:22.049Z,19.90
2018-02-09T13:03:26.873Z,19.90
2018-02-09T13:04:31.678Z,19.90
2018-02-09T13:05:36.612Z,19.90
2018-02-09T13:06:41.828Z,19.90
2018-02-09T13:07:46.611Z,19.90
2018-02-09T13:08:51.572Z,19.90
2018-02-09T13:09:56.535Z,19.90
2018-02-09T13:11:01.410Z,19.90
2018-02-09T13:12:07.148Z,19.90
2018-02-09T13:13:12.383Z,19.90
2018-02-09T13:14:17.168Z,19.80
2018-02-09T13:15:22.087Z,19.70
2018-02-09T13:16:26.905Z,19.70
2018-02-09T13:17:31.771Z,19.70
2018-02-09T13:18:36.826Z,19.70
2018-02-09T13:19:43.138Z,19.80
2018-02-09T13:20:48.717Z,19.80
2018-02-09T13:21:54.333Z,19.80
2018-02-09T13:22:59.347Z,19.90
2018-02-09T13:24:04.406Z,19.90
2018-02-09T13:25:09.334Z,19.90
2018-02-09T13:26:14.205Z,19.90
2018-02-09T13:27:19.170Z,19.90
2018-02-09T13:28:24.505Z,19.90
2018-02-09T13:29:29.298Z,19.90
2018-02-09T13:30:34.311Z,19.90
2018-02-09T13:31:39.279Z,19.90
2018-02-09T13:32:44.294Z,19.90
2018-02-09T13:33:49.177Z,19.90
2018-02-09T13:34:54.025Z,20.00
2018-02-09T13:35:58.905Z,19.90
2018-02-09T13:37:03.789Z,20.00
2018-02-09T13:38:08.780Z,20.00
2018-02-09T13:39:13.741Z,20.00
2018-02-09T13:40:18.576Z,20.00
2018-02-09T13:41:23.666Z,20.00
2018-02-09T13:42:28.697Z,20.00
2018-02-09T13:43:33.641Z,20.00
2018-02-09T13:44:38.500Z,20.00
2018-02-09T13:45:43.642Z,20.00
2018-02-09T13:46:48.760Z,20.00
2018-02-09T13:47:53.864Z,20.00
2018-02-09T13:48:59.642Z,20.00
2018-02-09T13:50:04.725Z,20.00
2018-02-09T13:51:09.777Z,20.00
2018-02-09T13:52:14.836Z,20.00
2018-02-09T13:53:19.991Z,20.00
2018-02-09T13:54:25.043Z,20.00
2018-02-09T13:55:30.095Z,20.00
2018-02-09T13:56:35.263Z,20.00